Предлагаем Вашему вниманию английскую версию страницы: AUTOTAF.ME USDK - aviation weather forecast Mys Kamennyj

AUTOTAF USDK - авиапрогноз Мыс Каменный

Сегодня рассвет 03:53 UTC, восход солнца 05:29 UTC,
местный полдень 07:16 UTC, заход солнца 09:03 UTC,
наступление темноты 10:39 UTC.

Краткий прогноз USDK на 9 часов

AUTOTAF.ME USDK 190800Z 1909/1918 01004MPS 9999 OVC009      
  BECMG 1916/1918 NSC

Детальный прогноз USDK на 24 часа

AUTOTAF.ME USDK 190800Z 1909/2009 01004MPS 9999 OVC009 TXM22/1909Z TNM32/2009Z    
  BECMG 1916/1918 SKC     
  BECMG 2004/2006 06004MPS

Подробный табличный прогноз

Время (UTC) miniAUTOTAF на 3 ч WX FZLVL
M AGL
ICE TURB Т
(°С)
Тd
(°С)
f(%) QNH
(гПа)
WIND/T
06 01004MPS 9999 -SN OVC008 -SN SFC -22 -25 74 1012 ...
09 01004MPS 9999 OVC009 SFC -22 -26 72 1014 ...
12 02004MPS 9999 OVC009 SFC -23 -26 72 1016 ...
15 02004MPS 9999 OVC009 SFC -23 -27 71 1017 ...
18 03004MPS 9999 SKC SFC -24 -28 71 1019 ...
21 02004MPS 9999 SKC SFC -24 -28 73 1020 ...
20.01.2021
00 03004MPS 9999 SKC SFC MOD FL40/FL50 -26 -29 74 1022 ...
03 04004MPS 9999 SKC SFC MOD FL40/FL50 -28 -31 74 1023 ...
06 06004MPS 9999 SKC SFC -30 -33 72 1025 ...
09 06004MPS 9999 SKC SFC -32 -35 70 1025 ...
12 07005MPS 9999 SKC SFC -32 -36 71 1027 ...
15 07005MPS 9999 SKC SFC -32 -36 70 1027 ...
18 08005MPS 9999 SKC SFC -32 -36 70 1027 ...
21 08005MPS 9999 SKC SFC -33 -36 70 1027 ...
21.01.2021
00 08006MPS 9999 FEW250 SFC -34 -38 70 1027 ...
03 10006MPS 9999 BKN240 SFC -35 -39 70 1027 ...


Широта 68.4672°, долгота 73.59727°, высота 2 м абс.
Средняя высота рельефа местности 7 м абс.
Прогнозы обновляются четыре раза в сутки: в 02, 08, 14, 20 ч всемирного времени.


Выбрать прогноз по другой модели Мыс Каменный
Онлайн-сводка гроз по Мыс Каменный (для РФ и ближнего зарубежья)
Карта фактических гроз в окрестностях Мыс Каменный
Динамические прогностические карты (ventusky.com)
Прогностическая карта высоты нижней границы облаков по Мыс Каменный (windy.com)
Выбрать другой город

Прогноз предназначен для личного научно-познавательного использования частными лицами
и не предназначен для принятия важных решений и выполнения реальных полётов воздушных судов

При копировании или ином использовании любых материалов данного сайта ссылка на © meteocenter.asia обязательна.

0.66/10.8